Time;durP1;ratioP1;P1;durP2;ratioP2;P2;SDS_P1;SDS_P2;PMS_P1;PMS_P2;Temp;Humidity;BMP_temperature;BMP_pressure;BME280_temperature;BME280_humidity;BME280_pressure;Samples;Min_cycle;Max_cycle;Signal;HPM_P1;HPM_P2
2021/12/30 00:01:20;;;;;;;1.40;0.70;;;;;;;;;;5083247;28;20192;-84
2021/12/30 00:03:47;;;;;;;0.68;0.68;;;;;;;;;;5099997;28;20189;-81
2021/12/30 00:06:13;;;;;;;0.80;0.80;;;;;;;;;;5088275;28;20664;-82
2021/12/30 00:08:39;;;;;;;1.77;0.80;;;;;;;;;;5089145;28;20191;-84
2021/12/30 00:11:06;;;;;;;0.80;0.80;;;;;;;;;;5088700;28;20244;-83
2021/12/30 00:13:32;;;;;;;0.88;0.80;;;;;;;;;;5087332;28;20182;-83
2021/12/30 00:15:58;;;;;;;0.75;0.75;;;;;;;;;;5083908;28;20200;-84
2021/12/30 00:18:24;;;;;;;0.77;0.77;;;;;;;;;;5097905;28;20233;-85
2021/12/30 00:20:50;;;;;;;1.00;0.90;;;;;;;;;;5088077;28;20691;-85
2021/12/30 00:23:16;;;;;;;0.90;0.77;;;;;;;;;;5087076;28;20187;-83
2021/12/30 00:25:44;;;;;;;0.90;0.70;;;;;;;;;;5087034;28;20198;-83
2021/12/30 00:28:13;;;;;;;0.90;0.80;;;;;;;;;;5088621;28;20514;-84
2021/12/30 00:30:39;;;;;;;1.30;0.82;;;;;;;;;;5073402;28;20175;-84
2021/12/30 00:33:06;;;;;;;0.95;0.80;;;;;;;;;;5089159;28;20180;-86
2021/12/30 00:35:32;;;;;;;1.48;1.00;;;;;;;;;;5087688;28;20258;-81
2021/12/30 00:37:58;;;;;;;1.13;1.00;;;;;;;;;;5071352;28;20290;-83
2021/12/30 00:40:25;;;;;;;1.20;1.10;;;;;;;;;;5083965;28;20193;-84
2021/12/30 00:42:51;;;;;;;1.60;1.00;;;;;;;;;;5085013;28;20176;-83
2021/12/30 00:45:17;;;;;;;3.03;0.88;;;;;;;;;;5079654;28;20172;-84
2021/12/30 00:47:43;;;;;;;1.02;0.90;;;;;;;;;;5072619;28;20174;-83
2021/12/30 00:50:09;;;;;;;0.80;0.80;;;;;;;;;;5072555;28;20273;-84
2021/12/30 00:52:35;;;;;;;3.55;1.20;;;;;;;;;;5072910;28;20179;-83
2021/12/30 00:55:02;;;;;;;1.10;1.00;;;;;;;;;;5065859;28;20195;-84
2021/12/30 00:57:28;;;;;;;1.10;0.90;;;;;;;;;;5081321;28;20204;-84
2021/12/30 00:59:54;;;;;;;1.08;0.98;;;;;;;;;;5082338;28;20640;-84
2021/12/30 01:02:20;;;;;;;3.78;1.10;;;;;;;;;;5077684;28;20206;-84
2021/12/30 01:04:46;;;;;;;1.13;1.03;;;;;;;;;;5073045;28;20255;-84
2021/12/30 01:07:12;;;;;;;1.10;0.80;;;;;;;;;;5085878;28;20427;-83
2021/12/30 01:09:38;;;;;;;0.88;0.70;;;;;;;;;;5071869;28;20433;-83
2021/12/30 01:12:04;;;;;;;4.30;2.35;;;;;;;;;;5090443;28;20263;-83
2021/12/30 01:14:32;;;;;;;1.42;0.80;;;;;;;;;;5091233;28;20244;-84
2021/12/30 01:17:12;;;;;;;1.20;1.10;;;;;;;;;;5083316;27;20597;-83
2021/12/30 01:19:44;;;;;;;3.83;1.17;;;;;;;;;;5116516;28;20214;-84
2021/12/30 01:22:21;;;;;;;2.13;0.95;;;;;;;;;;5108379;27;20175;-84
2021/12/30 01:24:47;;;;;;;2.30;1.45;;;;;;;;;;5108911;28;20193;-85
2021/12/30 01:27:13;;;;;;;1.75;1.02;;;;;;;;;;5092969;27;20581;-83
2021/12/30 01:29:39;;;;;;;2.20;1.23;;;;;;;;;;5098813;28;20176;-84
2021/12/30 01:32:05;;;;;;;2.97;1.60;;;;;;;;;;5096862;28;20461;-81
2021/12/30 01:34:32;;;;;;;1.73;1.08;;;;;;;;;;5095121;28;20441;-83
2021/12/30 01:37:01;;;;;;;0.90;0.90;;;;;;;;;;5089268;28;20176;-83
2021/12/30 01:39:28;;;;;;;6.57;1.27;;;;;;;;;;5089246;28;20614;-84
2021/12/30 01:41:54;;;;;;;2.10;1.02;;;;;;;;;;5095243;28;20236;-85
2021/12/30 01:44:21;;;;;;;1.00;0.90;;;;;;;;;;5095419;28;20213;-84
2021/12/30 01:46:47;;;;;;;1.75;0.90;;;;;;;;;;5106940;28;20180;-84
2021/12/30 01:49:13;;;;;;;1.33;0.93;;;;;;;;;;5122576;28;20191;-83
2021/12/30 01:51:39;;;;;;;1.35;0.90;;;;;;;;;;5091027;28;20181;-83
2021/12/30 01:54:05;;;;;;;1.00;0.90;;;;;;;;;;5094944;28;20180;-84
2021/12/30 01:56:31;;;;;;;1.80;1.10;;;;;;;;;;5103850;28;20197;-83
2021/12/30 01:58:57;;;;;;;3.42;0.85;;;;;;;;;;5102725;28;20241;-82
2021/12/30 02:01:24;;;;;;;1.60;0.90;;;;;;;;;;5106786;28;20186;-83
2021/12/30 02:03:50;;;;;;;1.45;0.80;;;;;;;;;;5109151;28;20167;-83
2021/12/30 02:06:16;;;;;;;2.00;0.90;;;;;;;;;;5092035;28;20218;-83
2021/12/30 02:08:42;;;;;;;0.88;0.85;;;;;;;;;;5100688;28;20448;-84
2021/12/30 02:11:08;;;;;;;1.17;0.80;;;;;;;;;;5102354;28;20465;-82
2021/12/30 02:13:34;;;;;;;3.17;1.00;;;;;;;;;;5095114;28;20175;-83
2021/12/30 02:16:02;;;;;;;1.90;0.88;;;;;;;;;;5087377;28;20283;-82
2021/12/30 02:18:29;;;;;;;1.08;0.73;;;;;;;;;;5107774;28;20248;-82
2021/12/30 02:20:56;;;;;;;1.45;0.52;;;;;;;;;;5102266;28;20193;-82
2021/12/30 02:23:22;;;;;;;1.75;1.00;;;;;;;;;;5115473;28;20647;-82
2021/12/30 02:25:48;;;;;;;0.70;0.70;;;;;;;;;;5103393;28;20189;-81
2021/12/30 02:28:16;;;;;;;1.83;1.20;;;;;;;;;;5104026;28;20490;-81
2021/12/30 02:30:42;;;;;;;2.05;0.70;;;;;;;;;;5103131;28;20173;-84
2021/12/30 02:33:09;;;;;;;1.45;1.00;;;;;;;;;;5122458;27;20194;-81
2021/12/30 02:35:35;;;;;;;0.75;0.75;;;;;;;;;;5112837;28;20187;-84
2021/12/30 02:38:01;;;;;;;1.15;0.73;;;;;;;;;;5117678;28;20677;-82
2021/12/30 02:40:35;;;;;;;0.80;0.75;;;;;;;;;;5109216;28;20179;-85
2021/12/30 02:43:01;;;;;;;1.70;1.00;;;;;;;;;;5088040;28;20182;-81
2021/12/30 02:45:27;;;;;;;1.98;0.77;;;;;;;;;;5090452;28;20475;-80
2021/12/30 02:47:53;;;;;;;1.15;0.60;;;;;;;;;;5094809;28;20195;-83
2021/12/30 02:50:19;;;;;;;1.58;0.80;;;;;;;;;;5094811;28;20186;-84
2021/12/30 02:52:45;;;;;;;0.88;0.75;;;;;;;;;;5109526;28;20190;-83
2021/12/30 02:55:11;;;;;;;0.80;0.60;;;;;;;;;;5105838;28;20187;-84
2021/12/30 02:57:37;;;;;;;1.13;0.70;;;;;;;;;;5105370;27;20464;-84
2021/12/30 03:00:05;;;;;;;3.00;1.45;;;;;;;;;;5094478;28;20187;-85
2021/12/30 03:02:31;;;;;;;2.65;0.80;;;;;;;;;;5100653;28;20188;-85
2021/12/30 03:04:57;;;;;;;2.88;1.42;;;;;;;;;;5094177;28;20186;-84
2021/12/30 03:07:23;;;;;;;2.10;0.70;;;;;;;;;;5105746;28;20496;-84
2021/12/30 03:09:49;;;;;;;1.80;1.00;;;;;;;;;;5103391;28;20447;-87
2021/12/30 03:12:15;;;;;;;1.67;0.80;;;;;;;;;;5101312;28;20218;-83
2021/12/30 03:14:42;;;;;;;1.63;0.75;;;;;;;;;;5106029;28;20190;-82
2021/12/30 03:17:08;;;;;;;1.90;0.80;;;;;;;;;;5115769;28;20636;-83
2021/12/30 03:19:34;;;;;;;0.70;0.65;;;;;;;;;;5107737;28;20190;-83
2021/12/30 03:22:00;;;;;;;1.80;0.80;;;;;;;;;;5105194;28;20183;-82
2021/12/30 03:24:26;;;;;;;1.30;0.75;;;;;;;;;;5091085;28;20593;-84
2021/12/30 03:26:52;;;;;;;2.15;0.90;;;;;;;;;;5093615;28;20190;-82
2021/12/30 03:29:18;;;;;;;3.25;0.80;;;;;;;;;;5111168;27;20682;-82
2021/12/30 03:31:44;;;;;;;1.10;0.60;;;;;;;;;;5108107;28;20186;-82
2021/12/30 03:34:10;;;;;;;1.48;1.00;;;;;;;;;;5105618;28;20434;-85
2021/12/30 03:36:37;;;;;;;3.33;0.97;;;;;;;;;;5089033;28;20168;-83
2021/12/30 03:39:04;;;;;;;4.85;0.90;;;;;;;;;;5091892;28;20452;-83
2021/12/30 03:41:30;;;;;;;1.77;0.90;;;;;;;;;;5109092;28;20175;-84
2021/12/30 03:43:59;;;;;;;1.70;0.90;;;;;;;;;;5108911;28;20189;-82
2021/12/30 03:46:25;;;;;;;2.67;1.00;;;;;;;;;;5107005;28;20209;-83
2021/12/30 03:48:51;;;;;;;1.88;0.90;;;;;;;;;;5122732;28;20181;-81
2021/12/30 03:51:24;;;;;;;4.90;0.95;;;;;;;;;;5112235;27;20186;-82
2021/12/30 03:53:51;;;;;;;2.15;0.93;;;;;;;;;;5112010;27;20175;-84
2021/12/30 03:56:19;;;;;;;1.63;1.00;;;;;;;;;;5104762;28;20240;-82
2021/12/30 03:58:45;;;;;;;1.83;1.00;;;;;;;;;;5093092;28;20202;-81
2021/12/30 04:01:14;;;;;;;3.17;0.90;;;;;;;;;;5087581;28;20183;-83
2021/12/30 04:03:40;;;;;;;1.35;0.80;;;;;;;;;;5088819;28;20259;-83
2021/12/30 04:06:06;;;;;;;2.97;0.98;;;;;;;;;;5108806;28;20184;-80
2021/12/30 04:08:33;;;;;;;1.00;0.80;;;;;;;;;;5093140;28;20183;-85
2021/12/30 04:10:59;;;;;;;1.90;0.90;;;;;;;;;;5089835;28;20220;-83
2021/12/30 04:13:25;;;;;;;3.00;1.20;;;;;;;;;;5099052;28;20179;-83
2021/12/30 04:15:51;;;;;;;2.08;1.00;;;;;;;;;;5098194;28;20441;-80
2021/12/30 04:18:17;;;;;;;2.97;0.98;;;;;;;;;;5079058;28;20236;-82
2021/12/30 04:20:44;;;;;;;3.78;1.10;;;;;;;;;;5089005;28;20180;-81
2021/12/30 04:23:10;;;;;;;3.25;1.10;;;;;;;;;;5100172;28;20187;-82
2021/12/30 04:25:36;;;;;;;2.80;0.80;;;;;;;;;;5128000;27;20171;-82
2021/12/30 04:28:02;;;;;;;3.22;0.90;;;;;;;;;;5104069;28;20193;-82
2021/12/30 04:30:27;;;;;;;3.55;0.82;;;;;;;;;;5108213;28;20730;-81
2021/12/30 04:32:54;;;;;;;1.10;0.90;;;;;;;;;;5101068;28;20239;-82
2021/12/30 04:35:20;;;;;;;3.55;1.20;;;;;;;;;;5102472;28;20453;-80
2021/12/30 04:37:46;;;;;;;3.60;3.00;;;;;;;;;;5121330;28;20224;-81
2021/12/30 04:40:12;;;;;;;3.03;1.20;;;;;;;;;;5106990;28;20182;-83
2021/12/30 04:42:38;;;;;;;2.90;1.17;;;;;;;;;;5092790;28;20419;-83
2021/12/30 04:45:05;;;;;;;1.50;0.80;;;;;;;;;;5104756;28;20191;-83
2021/12/30 04:47:31;;;;;;;1.20;0.90;;;;;;;;;;5099813;28;20247;-82
2021/12/30 04:49:58;;;;;;;1.33;1.00;;;;;;;;;;5113276;28;20207;-83
2021/12/30 04:52:24;;;;;;;2.05;1.00;;;;;;;;;;5110309;28;20174;-84
2021/12/30 04:54:50;;;;;;;2.90;1.00;;;;;;;;;;5110527;28;20187;-81
2021/12/30 04:57:16;;;;;;;1.40;1.10;;;;;;;;;;5111950;28;20183;-81
2021/12/30 04:59:42;;;;;;;4.00;1.40;;;;;;;;;;5097232;28;20431;-82
2021/12/30 05:02:08;;;;;;;4.60;1.00;;;;;;;;;;5097386;28;20190;-82
2021/12/30 05:04:34;;;;;;;4.47;0.90;;;;;;;;;;5096472;28;20187;-82
2021/12/30 05:07:00;;;;;;;4.60;1.17;;;;;;;;;;5089356;28;20276;-82
2021/12/30 05:09:26;;;;;;;3.50;1.00;;;;;;;;;;5113008;28;20424;-80
2021/12/30 05:11:53;;;;;;;2.20;1.00;;;;;;;;;;5083755;28;20496;-83
2021/12/30 05:14:20;;;;;;;4.20;1.30;;;;;;;;;;5088637;28;20495;-83
2021/12/30 05:16:46;;;;;;;2.65;1.17;;;;;;;;;;5095244;28;20186;-82
2021/12/30 05:19:12;;;;;;;3.90;1.77;;;;;;;;;;5089838;28;20207;-83
2021/12/30 05:21:38;;;;;;;3.13;1.40;;;;;;;;;;5133146;27;20263;-82
2021/12/30 05:24:04;;;;;;;7.03;1.77;;;;;;;;;;5112943;28;20160;-82
2021/12/30 05:26:30;;;;;;;1.80;1.08;;;;;;;;;;5091608;28;20179;-83
2021/12/30 05:28:57;;;;;;;5.47;1.10;;;;;;;;;;5099800;28;20565;-83
2021/12/30 05:31:24;;;;;;;3.60;1.20;;;;;;;;;;5105898;28;20701;-82
2021/12/30 05:33:50;;;;;;;5.35;1.00;;;;;;;;;;5123337;28;20182;-82
2021/12/30 05:36:16;;;;;;;1.30;1.20;;;;;;;;;;5111029;28;20268;-82
2021/12/30 05:38:42;;;;;;;4.00;1.33;;;;;;;;;;5111904;28;20211;-82
2021/12/30 05:41:08;;;;;;;2.97;1.85;;;;;;;;;;5096309;28;20178;-83
2021/12/30 05:43:34;;;;;;;3.75;1.38;;;;;;;;;;5111120;28;20187;-82
2021/12/30 05:46:00;;;;;;;2.28;0.98;;;;;;;;;;5105618;28;20186;-82
2021/12/30 05:48:27;;;;;;;4.10;1.48;;;;;;;;;;5112697;28;20633;-83
2021/12/30 05:50:54;;;;;;;9.02;1.70;;;;;;;;;;5112164;28;20179;-84
2021/12/30 05:53:20;;;;;;;4.82;1.42;;;;;;;;;;5095593;28;20590;-82
2021/12/30 05:55:46;;;;;;;9.20;1.73;;;;;;;;;;5104277;28;20247;-82
2021/12/30 05:58:12;;;;;;;5.95;1.77;;;;;;;;;;5108178;28;20464;-80
2021/12/30 06:00:38;;;;;;;7.17;1.63;;;;;;;;;;5114674;28;20678;-82
2021/12/30 06:03:04;;;;;;;7.63;2.40;;;;;;;;;;5112625;28;20412;-83
2021/12/30 06:05:30;;;;;;;5.07;1.60;;;;;;;;;;5117306;28;20453;-82
2021/12/30 06:07:56;;;;;;;4.35;1.77;;;;;;;;;;5110881;28;20198;-82
2021/12/30 06:10:22;;;;;;;5.57;1.42;;;;;;;;;;5092559;28;20239;-82
2021/12/30 06:12:48;;;;;;;4.18;1.77;;;;;;;;;;5108620;28;20176;-83
2021/12/30 06:15:15;;;;;;;6.00;2.17;;;;;;;;;;5097270;28;20165;-82
2021/12/30 06:17:41;;;;;;;5.95;2.13;;;;;;;;;;5101356;28;20468;-81
2021/12/30 06:20:08;;;;;;;4.93;1.85;;;;;;;;;;5121247;28;20211;-81
2021/12/30 06:22:34;;;;;;;5.63;1.90;;;;;;;;;;5116100;28;20184;-82
2021/12/30 06:25:00;;;;;;;6.82;1.98;;;;;;;;;;5104882;28;20182;-82
2021/12/30 06:27:26;;;;;;;7.82;2.22;;;;;;;;;;5107157;28;20203;-81
2021/12/30 06:29:52;;;;;;;7.40;2.40;;;;;;;;;;5108162;28;20184;-82
2021/12/30 06:32:18;;;;;;;6.20;2.17;;;;;;;;;;5107416;28;20570;-81
2021/12/30 06:34:44;;;;;;;4.40;2.03;;;;;;;;;;5111391;28;20460;-84
2021/12/30 06:37:11;;;;;;;7.30;2.00;;;;;;;;;;5126730;27;20434;-83
2021/12/30 06:39:37;;;;;;;8.73;2.20;;;;;;;;;;5112295;27;20222;-83
2021/12/30 06:42:03;;;;;;;6.55;1.80;;;;;;;;;;5112008;28;20510;-82
2021/12/30 06:44:29;;;;;;;14.02;2.67;;;;;;;;;;5090027;28;20189;-83
2021/12/30 06:47:00;;;;;;;10.13;2.58;;;;;;;;;;5103149;28;20205;-83
2021/12/30 06:49:35;;;;;;;6.80;2.60;;;;;;;;;;5117683;28;20259;-82
2021/12/30 06:52:01;;;;;;;12.73;2.60;;;;;;;;;;5123658;28;20402;-84
2021/12/30 06:54:27;;;;;;;6.90;2.70;;;;;;;;;;5087890;28;20222;-84
2021/12/30 06:56:55;;;;;;;12.10;2.20;;;;;;;;;;5110616;28;20184;-82
2021/12/30 06:59:21;;;;;;;6.40;2.50;;;;;;;;;;5108890;28;20813;-82
2021/12/30 07:01:47;;;;;;;8.02;2.30;;;;;;;;;;5122078;27;20209;-82
2021/12/30 07:04:13;;;;;;;5.65;1.98;;;;;;;;;;5104342;28;20180;-81
2021/12/30 07:06:39;;;;;;;5.28;2.20;;;;;;;;;;5115157;27;20186;-80
2021/12/30 07:09:05;;;;;;;8.73;1.80;;;;;;;;;;5091049;28;20199;-82
2021/12/30 07:11:31;;;;;;;6.75;2.45;;;;;;;;;;5113424;27;20181;-79
2021/12/30 07:13:58;;;;;;;6.80;2.28;;;;;;;;;;5127561;27;20657;-80
2021/12/30 07:16:24;;;;;;;8.15;2.53;;;;;;;;;;5106302;28;20191;-83
2021/12/30 07:18:50;;;;;;;7.17;1.80;;;;;;;;;;5106273;27;20693;-81
2021/12/30 07:21:16;;;;;;;9.05;3.20;;;;;;;;;;5115090;27;20434;-82
2021/12/30 07:23:43;;;;;;;9.40;2.47;;;;;;;;;;5106122;28;20250;-89
2021/12/30 07:26:09;;;;;;;9.25;2.40;;;;;;;;;;5095181;28;20179;-87
2021/12/30 07:28:35;;;;;;;14.80;2.88;;;;;;;;;;5092892;28;20198;-87
2021/12/30 07:31:01;;;;;;;9.13;2.40;;;;;;;;;;5096902;28;20180;-88
2021/12/30 07:33:27;;;;;;;7.63;2.43;;;;;;;;;;5123026;27;20178;-88
2021/12/30 07:35:53;;;;;;;9.53;2.80;;;;;;;;;;5102060;28;20510;-87
2021/12/30 07:38:19;;;;;;;7.28;2.35;;;;;;;;;;5118643;28;20536;-87
2021/12/30 07:40:45;;;;;;;6.03;1.98;;;;;;;;;;5120381;27;20580;-85
2021/12/30 07:43:11;;;;;;;5.90;2.60;;;;;;;;;;5104425;28;20205;-87
2021/12/30 07:45:37;;;;;;;18.00;4.45;;;;;;;;;;5117450;27;20447;-89
2021/12/30 07:48:03;;;;;;;7.30;2.47;;;;;;;;;;5123523;27;20185;-90
2021/12/30 07:50:29;;;;;;;10.57;2.75;;;;;;;;;;5105126;28;20443;-88
2021/12/30 07:52:55;;;;;;;15.10;2.95;;;;;;;;;;5103299;28;20595;-87
2021/12/30 07:55:21;;;;;;;5.22;2.60;;;;;;;;;;5108837;27;20701;-84
2021/12/30 07:57:47;;;;;;;8.15;2.30;;;;;;;;;;5099405;28;20229;-87
2021/12/30 08:00:15;;;;;;;8.90;2.60;;;;;;;;;;5101389;27;20179;-87
2021/12/30 08:02:42;;;;;;;15.82;3.50;;;;;;;;;;5107477;27;20788;-85
2021/12/30 08:05:13;;;;;;;10.10;2.42;;;;;;;;;;5107258;28;20278;-90
2021/12/30 08:07:39;;;;;;;6.28;2.15;;;;;;;;;;5093626;28;20181;-87
2021/12/30 08:10:10;;;;;;;9.00;2.70;;;;;;;;;;5091686;28;20534;-87
2021/12/30 08:12:37;;;;;;;11.80;3.55;;;;;;;;;;5101351;28;20264;-84
2021/12/30 08:15:03;;;;;;;8.95;3.17;;;;;;;;;;5110646;28;20672;-84
2021/12/30 08:17:29;;;;;;;5.63;2.42;;;;;;;;;;5108081;28;20244;-89
2021/12/30 08:19:56;;;;;;;6.85;2.45;;;;;;;;;;5099207;28;20207;-86
2021/12/30 08:22:22;;;;;;;12.40;2.73;;;;;;;;;;5104017;28;20598;-89
2021/12/30 08:24:48;;;;;;;10.23;3.20;;;;;;;;;;5106483;28;20428;-88
2021/12/30 08:27:14;;;;;;;7.67;2.90;;;;;;;;;;5101979;28;20455;-87
2021/12/30 08:29:41;;;;;;;9.07;2.50;;;;;;;;;;5105673;28;20448;-90
2021/12/30 08:32:08;;;;;;;15.63;3.15;;;;;;;;;;5099549;28;20628;-88
2021/12/30 08:34:34;;;;;;;10.88;3.47;;;;;;;;;;5104024;28;20179;-88
2021/12/30 08:37:00;;;;;;;6.55;2.25;;;;;;;;;;5108944;28;20214;-88
2021/12/30 08:39:26;;;;;;;11.03;2.40;;;;;;;;;;5108951;27;20198;-89
2021/12/30 08:41:52;;;;;;;10.03;2.70;;;;;;;;;;5106425;28;20487;-83
2021/12/30 08:44:18;;;;;;;9.50;2.92;;;;;;;;;;5101980;28;20431;-85
2021/12/30 08:46:44;;;;;;;7.82;2.90;;;;;;;;;;5102199;28;20185;-89
2021/12/30 08:49:10;;;;;;;9.57;3.07;;;;;;;;;;5103342;28;20306;-86
2021/12/30 08:51:37;;;;;;;13.67;4.27;;;;;;;;;;5119272;28;20420;-86
2021/12/30 08:54:03;;;;;;;13.90;4.57;;;;;;;;;;5092663;28;20419;-84
2021/12/30 08:56:29;;;;;;;11.77;3.25;;;;;;;;;;5107498;28;20211;-84
2021/12/30 08:58:55;;;;;;;11.70;3.43;;;;;;;;;;5108678;28;20228;-85
2021/12/30 09:01:21;;;;;;;10.77;3.60;;;;;;;;;;5120883;28;20431;-87
2021/12/30 09:03:47;;;;;;;9.02;3.13;;;;;;;;;;5112835;28;20422;-86
2021/12/30 09:06:13;;;;;;;15.27;3.53;;;;;;;;;;5123545;28;20171;-87
2021/12/30 09:08:39;;;;;;;8.10;2.25;;;;;;;;;;5121664;28;20976;-88
2021/12/30 09:11:05;;;;;;;13.18;3.35;;;;;;;;;;5109440;28;20209;-84
2021/12/30 09:13:31;;;;;;;9.23;3.00;;;;;;;;;;5101839;28;20201;-85
2021/12/30 09:15:57;;;;;;;13.35;3.03;;;;;;;;;;5109607;28;20255;-86
2021/12/30 09:18:24;;;;;;;9.02;2.28;;;;;;;;;;5100249;28;20248;-88
2021/12/30 09:20:50;;;;;;;5.65;2.38;;;;;;;;;;5101443;28;20180;-87
2021/12/30 09:23:17;;;;;;;10.55;2.50;;;;;;;;;;5107398;28;20187;-84
2021/12/30 09:25:43;;;;;;;10.85;2.55;;;;;;;;;;5111804;28;20204;-87
2021/12/30 09:28:12;;;;;;;6.03;2.33;;;;;;;;;;5090106;28;20342;-84
2021/12/30 09:30:38;;;;;;;6.60;2.75;;;;;;;;;;5093058;28;20181;-86
2021/12/30 09:33:05;;;;;;;7.40;2.65;;;;;;;;;;5092371;28;20207;-86
2021/12/30 09:35:31;;;;;;;10.50;2.80;;;;;;;;;;5115926;27;20191;-85
2021/12/30 09:37:57;;;;;;;9.88;3.03;;;;;;;;;;5111835;28;20209;-88
2021/12/30 09:40:23;;;;;;;8.73;2.60;;;;;;;;;;5101029;28;20186;-87
2021/12/30 09:42:53;;;;;;;5.60;1.83;;;;;;;;;;5103395;28;20179;-90
2021/12/30 09:45:20;;;;;;;3.92;2.28;;;;;;;;;;5090897;28;20200;-89
2021/12/30 09:47:51;;;;;;;7.10;2.85;;;;;;;;;;5099963;28;20183;-86
2021/12/30 09:50:17;;;;;;;9.57;2.50;;;;;;;;;;5100349;28;20183;-87
2021/12/30 09:52:43;;;;;;;7.93;2.05;;;;;;;;;;5106703;28;20206;-84
2021/12/30 09:55:09;;;;;;;8.75;2.78;;;;;;;;;;5106772;28;20182;-88
2021/12/30 09:57:36;;;;;;;9.90;3.05;;;;;;;;;;5105429;28;20178;-88
2021/12/30 10:00:03;;;;;;;6.78;2.35;;;;;;;;;;5119997;28;20169;-86
2021/12/30 10:02:29;;;;;;;8.20;2.15;;;;;;;;;;5103831;28;20181;-87
2021/12/30 10:05:04;;;;;;;8.50;3.30;;;;;;;;;;5105550;28;20222;-85
2021/12/30 10:07:30;;;;;;;8.55;2.65;;;;;;;;;;5115505;27;20433;-90
2021/12/30 10:10:01;;;;;;;11.73;2.87;;;;;;;;;;5090065;28;20727;-88
2021/12/30 10:12:44;;;;;;;8.75;3.00;;;;;;;;;;5106760;28;20558;-84
2021/12/30 10:15:10;;;;;;;8.40;3.33;;;;;;;;;;5128541;27;20173;-85
2021/12/30 10:17:36;;;;;;;10.30;3.00;;;;;;;;;;5108434;27;20217;-87
2021/12/30 10:20:16;;;;;;;11.07;3.37;;;;;;;;;;5128191;27;20577;-84
2021/12/30 10:22:42;;;;;;;6.47;2.88;;;;;;;;;;5121164;28;20431;-87
2021/12/30 10:25:27;;;;;;;7.60;3.28;;;;;;;;;;5115963;28;20182;-84
2021/12/30 10:27:53;;;;;;;17.00;3.22;;;;;;;;;;5086296;28;20267;-85
2021/12/30 10:30:35;;;;;;;16.83;3.30;;;;;;;;;;5111580;28;20239;-89
2021/12/30 10:33:17;;;;;;;10.05;3.08;;;;;;;;;;5107024;28;20261;-85
2021/12/30 10:35:43;;;;;;;15.77;3.35;;;;;;;;;;5121330;28;20655;-83
2021/12/30 10:38:11;;;;;;;12.57;3.00;;;;;;;;;;5124238;27;20203;-86
2021/12/30 10:40:39;;;;;;;10.13;3.20;;;;;;;;;;5106656;28;20181;-87
2021/12/30 10:43:26;;;;;;;7.80;2.85;;;;;;;;;;5106767;28;20174;-83
2021/12/30 10:46:04;;;;;;;11.45;2.80;;;;;;;;;;5102250;28;20665;-87
2021/12/30 10:48:31;;;;;;;6.00;2.20;;;;;;;;;;5106647;27;20240;-83
2021/12/30 10:51:10;;;;;;;13.55;2.85;;;;;;;;;;5101962;28;20700;-85
2021/12/30 10:53:37;;;;;;;15.93;2.90;;;;;;;;;;5101616;28;20189;-87
2021/12/30 10:56:23;;;;;;;6.88;2.00;;;;;;;;;;5115344;28;20732;-86
2021/12/30 10:58:50;;;;;;;8.68;3.05;;;;;;;;;;5092349;28;20210;-84
2021/12/30 11:01:20;;;;;;;6.25;2.40;;;;;;;;;;5105572;28;20714;-89
2021/12/30 11:04:00;;;;;;;7.00;2.13;;;;;;;;;;5103402;28;20162;-82
2021/12/30 11:06:27;;;;;;;9.23;2.88;;;;;;;;;;5109086;28;20262;-88
2021/12/30 11:09:08;;;;;;;10.02;3.20;;;;;;;;;;5095822;28;20200;-87
2021/12/30 11:11:34;;;;;;;4.32;2.45;;;;;;;;;;5095406;28;20246;-88
2021/12/30 11:14:03;;;;;;;8.65;4.05;;;;;;;;;;5103423;28;20187;-85
2021/12/30 11:16:29;;;;;;;9.85;4.13;;;;;;;;;;5100592;28;20192;-87
2021/12/30 11:18:56;;;;;;;9.40;2.78;;;;;;;;;;5107344;27;20232;-87
2021/12/30 11:21:42;;;;;;;9.15;2.92;;;;;;;;;;5090053;28;20189;-85
2021/12/30 11:24:09;;;;;;;11.77;2.55;;;;;;;;;;5114844;28;20176;-85
2021/12/30 11:26:35;;;;;;;7.38;2.83;;;;;;;;;;5097758;28;20180;-85
2021/12/30 11:29:02;;;;;;;8.57;2.70;;;;;;;;;;5098650;27;20276;-85
2021/12/30 11:31:30;;;;;;;6.60;2.25;;;;;;;;;;5115674;28;20188;-86
2021/12/30 11:33:56;;;;;;;8.98;2.70;;;;;;;;;;5103835;28;20845;-85
2021/12/30 11:36:22;;;;;;;7.53;2.20;;;;;;;;;;5090393;28;20171;-86
2021/12/30 11:38:48;;;;;;;5.45;2.30;;;;;;;;;;5094302;28;20468;-87
2021/12/30 11:41:22;;;;;;;4.38;1.90;;;;;;;;;;5113520;28;20221;-87
2021/12/30 11:43:49;;;;;;;9.13;2.83;;;;;;;;;;5096966;27;20181;-87
2021/12/30 11:46:34;;;;;;;5.95;2.30;;;;;;;;;;5103450;28;20216;-88
2021/12/30 11:49:01;;;;;;;5.90;2.10;;;;;;;;;;5089503;28;20183;-90
2021/12/30 11:51:40;;;;;;;7.32;2.50;;;;;;;;;;5090837;28;20266;-89
2021/12/30 11:54:25;;;;;;;7.65;2.20;;;;;;;;;;5110341;28;20262;-93
2021/12/30 11:57:10;;;;;;;8.80;2.13;;;;;;;;;;5085768;28;20199;-87
2021/12/30 11:59:39;;;;;;;3.92;2.22;;;;;;;;;;5099323;28;20202;-87
2021/12/30 12:02:25;;;;;;;5.93;2.20;;;;;;;;;;5117308;28;20179;-86
2021/12/30 12:04:51;;;;;;;4.38;1.60;;;;;;;;;;5115098;27;20190;-87
2021/12/30 12:07:17;;;;;;;8.20;2.22;;;;;;;;;;5090362;28;20183;-87
2021/12/30 12:09:43;;;;;;;6.77;1.40;;;;;;;;;;5088873;28;20186;-86
2021/12/30 12:12:15;;;;;;;9.60;2.60;;;;;;;;;;5104088;28;20459;-87
2021/12/30 12:14:44;;;;;;;3.53;1.65;;;;;;;;;;5105575;28;20179;-88
2021/12/30 12:17:12;;;;;;;6.43;1.63;;;;;;;;;;5098000;28;20229;-87
2021/12/30 12:19:49;;;;;;;3.45;2.10;;;;;;;;;;5090266;28;20206;-87
2021/12/30 12:22:18;;;;;;;4.38;1.65;;;;;;;;;;5117765;28;20198;-88
2021/12/30 12:24:45;;;;;;;4.78;2.47;;;;;;;;;;5101826;28;20166;-85
2021/12/30 12:27:13;;;;;;;6.57;2.08;;;;;;;;;;5088391;28;20179;-89
2021/12/30 12:29:51;;;;;;;6.38;2.33;;;;;;;;;;5107955;28;20199;-90
2021/12/30 12:32:18;;;;;;;4.28;1.88;;;;;;;;;;5098509;28;20182;-90
2021/12/30 12:34:53;;;;;;;4.30;1.98;;;;;;;;;;5107018;28;20194;-87
2021/12/30 12:37:28;;;;;;;6.45;2.22;;;;;;;;;;5105013;28;20290;-88
2021/12/30 12:39:58;;;;;;;4.72;1.58;;;;;;;;;;5087863;28;20205;-89
2021/12/30 12:42:43;;;;;;;4.05;1.70;;;;;;;;;;5098101;28;20570;-87
2021/12/30 12:45:18;;;;;;;6.18;1.85;;;;;;;;;;5116889;28;20171;-88
2021/12/30 12:47:44;;;;;;;5.38;1.80;;;;;;;;;;5096041;28;20172;-88
2021/12/30 12:50:11;;;;;;;4.88;1.77;;;;;;;;;;5100237;28;20256;-85
2021/12/30 12:52:47;;;;;;;5.78;2.15;;;;;;;;;;5093765;28;20176;-84
2021/12/30 12:55:18;;;;;;;4.97;2.00;;;;;;;;;;5118005;28;20185;-89
2021/12/30 12:57:44;;;;;;;5.88;1.65;;;;;;;;;;5123887;28;20182;-86
2021/12/30 13:00:11;;;;;;;6.65;1.80;;;;;;;;;;5113555;28;20179;-87
2021/12/30 13:02:37;;;;;;;3.97;1.60;;;;;;;;;;5101881;28;20311;-87
2021/12/30 13:05:07;;;;;;;6.38;1.63;;;;;;;;;;5113128;27;20194;-88
2021/12/30 13:07:34;;;;;;;1.98;1.52;;;;;;;;;;5104769;28;20182;-86
2021/12/30 13:10:00;;;;;;;3.30;1.65;;;;;;;;;;5120553;28;20248;-85
2021/12/30 13:12:26;;;;;;;3.27;1.70;;;;;;;;;;5109766;28;20208;-86
2021/12/30 13:14:52;;;;;;;3.30;1.73;;;;;;;;;;5118949;27;20501;-91
2021/12/30 13:17:18;;;;;;;3.55;1.67;;;;;;;;;;5118855;27;20958;-89
2021/12/30 13:19:45;;;;;;;4.93;1.90;;;;;;;;;;5108756;28;20214;-87
2021/12/30 13:22:12;;;;;;;6.88;2.20;;;;;;;;;;5111980;28;20191;-93
2021/12/30 13:24:38;;;;;;;6.13;1.88;;;;;;;;;;5097956;28;20181;-87
2021/12/30 13:27:06;;;;;;;2.90;1.57;;;;;;;;;;5108961;28;20185;-84
2021/12/30 13:29:34;;;;;;;2.88;1.70;;;;;;;;;;5101420;28;20460;-90
2021/12/30 13:32:02;;;;;;;6.50;1.88;;;;;;;;;;5099053;28;20205;-87
2021/12/30 13:34:28;;;;;;;6.85;1.80;;;;;;;;;;5095903;28;20189;-92
2021/12/30 13:37:07;;;;;;;3.45;1.50;;;;;;;;;;5091026;28;20182;-89
2021/12/30 13:39:35;;;;;;;7.18;2.03;;;;;;;;;;5105307;28;20201;-91
2021/12/30 13:42:01;;;;;;;10.02;2.15;;;;;;;;;;5103664;28;20182;-94
2021/12/30 13:44:38;;;;;;;6.30;1.95;;;;;;;;;;5111448;27;20199;-88
2021/12/30 13:47:24;;;;;;;6.25;1.85;;;;;;;;;;5124105;27;20290;-91
2021/12/30 13:49:55;;;;;;;4.90;2.50;;;;;;;;;;5091456;28;20225;-89
2021/12/30 13:52:28;;;;;;;3.58;1.80;;;;;;;;;;5107209;28;20359;-91
2021/12/30 13:55:26;;;;;;;7.38;2.30;;;;;;;;;;5111376;28;20181;-92
2021/12/30 13:57:58;;;;;;;3.90;1.95;;;;;;;;;;5041133;28;20216;-91
2021/12/30 14:00:24;;;;;;;5.55;1.60;;;;;;;;;;5025491;28;20348;-92
2021/12/30 14:03:20;;;;;;;4.35;2.20;;;;;;;;;;5039537;28;20194;-93
2021/12/30 14:05:48;;;;;;;5.30;2.08;;;;;;;;;;5019058;28;20261;-91
2021/12/30 14:08:16;;;;;;;5.28;1.85;;;;;;;;;;5026289;28;20662;-92
2021/12/30 14:10:43;;;;;;;4.65;2.08;;;;;;;;;;5018641;28;20244;-89
2021/12/30 14:13:09;;;;;;;3.47;2.00;;;;;;;;;;5025845;28;20192;-90
2021/12/30 14:15:35;;;;;;;3.70;2.13;;;;;;;;;;5026186;28;20197;-86
2021/12/30 14:18:03;;;;;;;8.00;2.30;;;;;;;;;;5026084;28;20566;-86
2021/12/30 14:20:30;;;;;;;3.83;2.20;;;;;;;;;;5018404;28;20217;-90
2021/12/30 14:22:56;;;;;;;5.30;2.17;;;;;;;;;;5010763;28;20188;-93
2021/12/30 14:25:25;;;;;;;4.45;1.98;;;;;;;;;;5025333;28;20181;-86
2021/12/30 14:27:54;;;;;;;6.50;2.28;;;;;;;;;;5025363;28;20227;-92
2021/12/30 14:30:23;;;;;;;7.50;1.95;;;;;;;;;;5026805;28;20654;-88
2021/12/30 14:32:49;;;;;;;6.65;2.15;;;;;;;;;;5031533;28;20282;-91
2021/12/30 14:35:16;;;;;;;4.05;1.90;;;;;;;;;;5127995;27;20186;-86
2021/12/30 14:37:44;;;;;;;4.28;1.90;;;;;;;;;;5117865;27;20226;-92
2021/12/30 14:40:16;;;;;;;8.23;2.13;;;;;;;;;;5105795;28;20178;-90
2021/12/30 14:42:42;;;;;;;7.35;2.30;;;;;;;;;;5097516;28;20178;-92
2021/12/30 14:45:08;;;;;;;6.20;1.65;;;;;;;;;;5101201;28;20190;-94